sensor_id;sensor_type;location;lat;lon;timestamp;P1;durP1;ratioP1;P2;durP2;ratioP2
24715;SDS011;12822;50.124;8.678;2023-06-10T00:01:37;15.43;;;8.07;;
24715;SDS011;12822;50.124;8.678;2023-06-10T00:04:03;11.07;;;7.95;;
24715;SDS011;12822;50.124;8.678;2023-06-10T00:06:30;9.30;;;7.47;;
24715;SDS011;12822;50.124;8.678;2023-06-10T00:09:04;11.90;;;7.90;;
24715;SDS011;12822;50.124;8.678;2023-06-10T00:11:30;12.10;;;7.82;;
24715;SDS011;12822;50.124;8.678;2023-06-10T00:13:56;12.65;;;8.23;;
24715;SDS011;12822;50.124;8.678;2023-06-10T00:16:22;11.35;;;7.75;;
24715;SDS011;12822;50.124;8.678;2023-06-10T00:18:48;9.98;;;7.75;;
24715;SDS011;12822;50.124;8.678;2023-06-10T00:21:16;12.73;;;7.90;;
24715;SDS011;12822;50.124;8.678;2023-06-10T00:23:42;8.95;;;7.32;;
24715;SDS011;12822;50.124;8.678;2023-06-10T00:26:08;11.52;;;7.80;;
24715;SDS011;12822;50.124;8.678;2023-06-10T00:28:35;10.73;;;8.02;;
24715;SDS011;12822;50.124;8.678;2023-06-10T00:31:01;11.80;;;7.47;;
24715;SDS011;12822;50.124;8.678;2023-06-10T00:33:27;12.57;;;7.93;;
24715;SDS011;12822;50.124;8.678;2023-06-10T00:35:54;14.88;;;7.85;;
24715;SDS011;12822;50.124;8.678;2023-06-10T00:38:20;11.35;;;8.38;;
24715;SDS011;12822;50.124;8.678;2023-06-10T00:40:46;10.00;;;7.38;;
24715;SDS011;12822;50.124;8.678;2023-06-10T00:43:12;9.70;;;7.80;;
24715;SDS011;12822;50.124;8.678;2023-06-10T00:45:38;10.68;;;7.38;;
24715;SDS011;12822;50.124;8.678;2023-06-10T00:48:04;10.85;;;7.55;;
24715;SDS011;12822;50.124;8.678;2023-06-10T00:50:30;14.40;;;8.05;;
24715;SDS011;12822;50.124;8.678;2023-06-10T00:52:57;11.68;;;8.23;;
24715;SDS011;12822;50.124;8.678;2023-06-10T00:55:23;12.02;;;8.32;;
24715;SDS011;12822;50.124;8.678;2023-06-10T00:57:52;13.93;;;7.80;;
24715;SDS011;12822;50.124;8.678;2023-06-10T01:00:19;10.15;;;7.60;;
24715;SDS011;12822;50.124;8.678;2023-06-10T01:02:45;10.50;;;7.97;;
24715;SDS011;12822;50.124;8.678;2023-06-10T01:05:11;12.35;;;8.30;;
24715;SDS011;12822;50.124;8.678;2023-06-10T01:07:52;12.73;;;8.13;;
24715;SDS011;12822;50.124;8.678;2023-06-10T01:10:25;12.20;;;8.57;;
24715;SDS011;12822;50.124;8.678;2023-06-10T01:13:02;17.55;;;8.98;;
24715;SDS011;12822;50.124;8.678;2023-06-10T01:15:31;12.93;;;7.95;;
24715;SDS011;12822;50.124;8.678;2023-06-10T01:20:23;14.57;;;7.80;;
24715;SDS011;12822;50.124;8.678;2023-06-10T01:22:51;12.07;;;7.45;;
24715;SDS011;12822;50.124;8.678;2023-06-10T01:25:20;11.88;;;7.65;;
24715;SDS011;12822;50.124;8.678;2023-06-10T01:27:52;15.27;;;8.00;;
24715;SDS011;12822;50.124;8.678;2023-06-10T01:30:19;10.15;;;8.50;;
24715;SDS011;12822;50.124;8.678;2023-06-10T01:32:48;11.20;;;7.57;;
24715;SDS011;12822;50.124;8.678;2023-06-10T01:35:15;15.73;;;7.82;;
24715;SDS011;12822;50.124;8.678;2023-06-10T01:37:45;12.00;;;7.70;;
24715;SDS011;12822;50.124;8.678;2023-06-10T01:40:12;10.63;;;8.13;;
24715;SDS011;12822;50.124;8.678;2023-06-10T01:42:39;10.35;;;8.38;;
24715;SDS011;12822;50.124;8.678;2023-06-10T01:45:05;11.13;;;7.68;;
24715;SDS011;12822;50.124;8.678;2023-06-10T01:47:31;14.07;;;8.15;;
24715;SDS011;12822;50.124;8.678;2023-06-10T01:49:57;11.55;;;7.93;;
24715;SDS011;12822;50.124;8.678;2023-06-10T01:52:23;10.65;;;7.72;;
24715;SDS011;12822;50.124;8.678;2023-06-10T01:54:49;13.00;;;7.85;;
24715;SDS011;12822;50.124;8.678;2023-06-10T01:57:15;11.18;;;8.02;;
24715;SDS011;12822;50.124;8.678;2023-06-10T01:59:41;9.73;;;7.13;;
24715;SDS011;12822;50.124;8.678;2023-06-10T02:02:09;10.68;;;7.80;;
24715;SDS011;12822;50.124;8.678;2023-06-10T02:04:35;11.25;;;7.75;;
24715;SDS011;12822;50.124;8.678;2023-06-10T02:07:01;14.57;;;7.82;;
24715;SDS011;12822;50.124;8.678;2023-06-10T02:09:29;11.27;;;7.75;;
24715;SDS011;12822;50.124;8.678;2023-06-10T02:11:55;9.07;;;7.50;;
24715;SDS011;12822;50.124;8.678;2023-06-10T02:14:21;11.60;;;8.35;;
24715;SDS011;12822;50.124;8.678;2023-06-10T02:16:47;9.57;;;7.63;;
24715;SDS011;12822;50.124;8.678;2023-06-10T02:19:13;15.13;;;8.20;;
24715;SDS011;12822;50.124;8.678;2023-06-10T02:21:39;12.73;;;8.07;;
24715;SDS011;12822;50.124;8.678;2023-06-10T02:24:05;12.38;;;8.13;;
24715;SDS011;12822;50.124;8.678;2023-06-10T02:26:31;16.40;;;7.63;;
24715;SDS011;12822;50.124;8.678;2023-06-10T02:28:57;10.43;;;7.10;;
24715;SDS011;12822;50.124;8.678;2023-06-10T02:31:23;15.63;;;7.53;;
24715;SDS011;12822;50.124;8.678;2023-06-10T02:33:50;14.60;;;8.05;;
24715;SDS011;12822;50.124;8.678;2023-06-10T02:36:16;9.07;;;7.15;;
24715;SDS011;12822;50.124;8.678;2023-06-10T02:38:42;10.07;;;7.78;;
24715;SDS011;12822;50.124;8.678;2023-06-10T02:41:08;11.40;;;8.30;;
24715;SDS011;12822;50.124;8.678;2023-06-10T02:43:34;10.25;;;7.50;;
24715;SDS011;12822;50.124;8.678;2023-06-10T02:46:00;13.85;;;7.57;;
24715;SDS011;12822;50.124;8.678;2023-06-10T02:48:26;12.13;;;7.75;;
24715;SDS011;12822;50.124;8.678;2023-06-10T02:50:52;13.18;;;8.48;;
24715;SDS011;12822;50.124;8.678;2023-06-10T02:53:18;10.95;;;7.63;;
24715;SDS011;12822;50.124;8.678;2023-06-10T02:55:45;11.68;;;7.50;;
24715;SDS011;12822;50.124;8.678;2023-06-10T02:58:11;10.55;;;7.65;;
24715;SDS011;12822;50.124;8.678;2023-06-10T03:00:37;10.82;;;7.45;;
24715;SDS011;12822;50.124;8.678;2023-06-10T03:03:06;10.30;;;7.68;;
24715;SDS011;12822;50.124;8.678;2023-06-10T03:05:32;12.77;;;8.32;;
24715;SDS011;12822;50.124;8.678;2023-06-10T03:07:58;13.82;;;7.63;;
24715;SDS011;12822;50.124;8.678;2023-06-10T03:10:24;12.73;;;7.80;;
24715;SDS011;12822;50.124;8.678;2023-06-10T03:12:50;10.90;;;8.05;;
24715;SDS011;12822;50.124;8.678;2023-06-10T03:15:16;9.43;;;7.38;;
24715;SDS011;12822;50.124;8.678;2023-06-10T03:17:42;10.82;;;7.72;;
24715;SDS011;12822;50.124;8.678;2023-06-10T03:20:08;10.88;;;7.78;;
24715;SDS011;12822;50.124;8.678;2023-06-10T03:22:35;12.20;;;7.40;;
24715;SDS011;12822;50.124;8.678;2023-06-10T03:25:03;12.77;;;7.85;;
24715;SDS011;12822;50.124;8.678;2023-06-10T03:27:29;13.07;;;7.70;;
24715;SDS011;12822;50.124;8.678;2023-06-10T03:29:55;13.13;;;8.10;;
24715;SDS011;12822;50.124;8.678;2023-06-10T03:32:21;13.63;;;7.85;;
24715;SDS011;12822;50.124;8.678;2023-06-10T03:34:47;9.75;;;7.20;;
24715;SDS011;12822;50.124;8.678;2023-06-10T03:37:13;10.32;;;7.65;;
24715;SDS011;12822;50.124;8.678;2023-06-10T03:39:40;11.10;;;7.35;;
24715;SDS011;12822;50.124;8.678;2023-06-10T03:42:06;11.15;;;8.10;;
24715;SDS011;12822;50.124;8.678;2023-06-10T03:44:32;10.45;;;7.90;;
24715;SDS011;12822;50.124;8.678;2023-06-10T03:46:58;13.52;;;7.47;;
24715;SDS011;12822;50.124;8.678;2023-06-10T03:49:24;10.75;;;7.00;;
24715;SDS011;12822;50.124;8.678;2023-06-10T03:51:51;12.05;;;7.75;;
24715;SDS011;12822;50.124;8.678;2023-06-10T03:54:17;12.77;;;7.75;;
24715;SDS011;12822;50.124;8.678;2023-06-10T03:56:43;10.30;;;7.22;;
24715;SDS011;12822;50.124;8.678;2023-06-10T03:59:10;12.88;;;7.13;;
24715;SDS011;12822;50.124;8.678;2023-06-10T04:01:36;8.82;;;7.05;;
24715;SDS011;12822;50.124;8.678;2023-06-10T04:04:02;10.48;;;7.40;;
24715;SDS011;12822;50.124;8.678;2023-06-10T04:06:28;10.98;;;6.75;;
24715;SDS011;12822;50.124;8.678;2023-06-10T04:08:55;8.63;;;6.55;;
24715;SDS011;12822;50.124;8.678;2023-06-10T04:11:22;9.20;;;7.00;;
24715;SDS011;12822;50.124;8.678;2023-06-10T04:13:48;9.43;;;6.95;;
24715;SDS011;12822;50.124;8.678;2023-06-10T04:16:14;10.77;;;7.00;;
24715;SDS011;12822;50.124;8.678;2023-06-10T04:18:41;10.68;;;7.00;;
24715;SDS011;12822;50.124;8.678;2023-06-10T04:21:07;12.18;;;6.63;;
24715;SDS011;12822;50.124;8.678;2023-06-10T04:23:34;10.60;;;6.60;;
24715;SDS011;12822;50.124;8.678;2023-06-10T04:26:01;9.50;;;6.72;;
24715;SDS011;12822;50.124;8.678;2023-06-10T04:28:27;9.98;;;7.28;;
24715;SDS011;12822;50.124;8.678;2023-06-10T04:30:53;10.20;;;6.25;;
24715;SDS011;12822;50.124;8.678;2023-06-10T04:33:20;9.20;;;6.57;;
24715;SDS011;12822;50.124;8.678;2023-06-10T04:35:46;9.93;;;6.45;;
24715;SDS011;12822;50.124;8.678;2023-06-10T04:38:13;12.60;;;6.55;;
24715;SDS011;12822;50.124;8.678;2023-06-10T04:40:39;9.95;;;6.05;;
24715;SDS011;12822;50.124;8.678;2023-06-10T04:43:05;12.20;;;6.72;;
24715;SDS011;12822;50.124;8.678;2023-06-10T04:45:31;9.70;;;6.57;;
24715;SDS011;12822;50.124;8.678;2023-06-10T04:47:57;12.05;;;6.78;;
24715;SDS011;12822;50.124;8.678;2023-06-10T04:50:23;9.82;;;6.28;;
24715;SDS011;12822;50.124;8.678;2023-06-10T04:52:49;9.25;;;6.78;;
24715;SDS011;12822;50.124;8.678;2023-06-10T04:55:15;10.98;;;6.85;;
24715;SDS011;12822;50.124;8.678;2023-06-10T04:57:41;9.60;;;7.13;;
24715;SDS011;12822;50.124;8.678;2023-06-10T05:00:08;13.65;;;6.82;;
24715;SDS011;12822;50.124;8.678;2023-06-10T05:02:34;13.02;;;8.02;;
24715;SDS011;12822;50.124;8.678;2023-06-10T05:05:00;9.30;;;6.95;;
24715;SDS011;12822;50.124;8.678;2023-06-10T05:07:26;10.02;;;6.60;;
24715;SDS011;12822;50.124;8.678;2023-06-10T05:09:52;9.55;;;6.88;;
24715;SDS011;12822;50.124;8.678;2023-06-10T05:12:18;11.93;;;6.80;;
24715;SDS011;12822;50.124;8.678;2023-06-10T05:14:44;9.57;;;6.40;;
24715;SDS011;12822;50.124;8.678;2023-06-10T05:17:10;9.35;;;6.68;;
24715;SDS011;12822;50.124;8.678;2023-06-10T05:19:37;9.25;;;6.70;;
24715;SDS011;12822;50.124;8.678;2023-06-10T05:22:03;11.00;;;6.22;;
24715;SDS011;12822;50.124;8.678;2023-06-10T05:24:30;11.88;;;6.65;;
24715;SDS011;12822;50.124;8.678;2023-06-10T05:26:56;9.52;;;6.63;;
24715;SDS011;12822;50.124;8.678;2023-06-10T05:29:22;11.50;;;6.28;;
24715;SDS011;12822;50.124;8.678;2023-06-10T05:31:48;12.13;;;6.50;;
24715;SDS011;12822;50.124;8.678;2023-06-10T05:34:14;9.00;;;6.60;;
24715;SDS011;12822;50.124;8.678;2023-06-10T05:36:40;9.52;;;6.45;;
24715;SDS011;12822;50.124;8.678;2023-06-10T05:39:06;12.13;;;6.63;;
24715;SDS011;12822;50.124;8.678;2023-06-10T05:41:32;10.48;;;6.50;;
24715;SDS011;12822;50.124;8.678;2023-06-10T05:43:58;11.18;;;6.43;;
24715;SDS011;12822;50.124;8.678;2023-06-10T05:46:24;9.82;;;6.07;;
24715;SDS011;12822;50.124;8.678;2023-06-10T05:48:49;9.13;;;5.80;;
24715;SDS011;12822;50.124;8.678;2023-06-10T05:51:15;11.73;;;6.97;;
24715;SDS011;12822;50.124;8.678;2023-06-10T05:53:41;8.38;;;6.50;;
24715;SDS011;12822;50.124;8.678;2023-06-10T05:56:08;9.85;;;6.47;;
24715;SDS011;12822;50.124;8.678;2023-06-10T05:58:34;10.57;;;6.22;;
24715;SDS011;12822;50.124;8.678;2023-06-10T06:01:00;10.52;;;6.18;;
24715;SDS011;12822;50.124;8.678;2023-06-10T06:03:26;8.27;;;5.88;;
24715;SDS011;12822;50.124;8.678;2023-06-10T06:05:53;10.75;;;6.03;;
24715;SDS011;12822;50.124;8.678;2023-06-10T06:08:19;7.93;;;5.97;;
24715;SDS011;12822;50.124;8.678;2023-06-10T06:10:45;10.30;;;6.30;;
24715;SDS011;12822;50.124;8.678;2023-06-10T06:13:12;10.27;;;6.03;;
24715;SDS011;12822;50.124;8.678;2023-06-10T06:15:38;9.15;;;5.90;;
24715;SDS011;12822;50.124;8.678;2023-06-10T06:18:04;9.25;;;5.70;;
24715;SDS011;12822;50.124;8.678;2023-06-10T06:20:30;10.98;;;5.82;;
24715;SDS011;12822;50.124;8.678;2023-06-10T06:22:57;9.02;;;5.85;;
24715;SDS011;12822;50.124;8.678;2023-06-10T06:25:23;9.75;;;6.20;;
24715;SDS011;12822;50.124;8.678;2023-06-10T06:27:48;10.40;;;6.25;;
24715;SDS011;12822;50.124;8.678;2023-06-10T06:30:14;13.93;;;6.63;;
24715;SDS011;12822;50.124;8.678;2023-06-10T06:32:41;11.18;;;6.15;;
24715;SDS011;12822;50.124;8.678;2023-06-10T06:35:07;8.43;;;5.95;;
24715;SDS011;12822;50.124;8.678;2023-06-10T06:37:33;9.93;;;6.30;;
24715;SDS011;12822;50.124;8.678;2023-06-10T06:40:00;12.48;;;6.40;;
24715;SDS011;12822;50.124;8.678;2023-06-10T06:42:25;7.75;;;5.93;;
24715;SDS011;12822;50.124;8.678;2023-06-10T06:44:51;11.82;;;6.80;;
24715;SDS011;12822;50.124;8.678;2023-06-10T06:47:17;12.25;;;6.35;;
24715;SDS011;12822;50.124;8.678;2023-06-10T06:49:45;10.35;;;6.57;;
24715;SDS011;12822;50.124;8.678;2023-06-10T06:52:11;8.85;;;6.13;;
24715;SDS011;12822;50.124;8.678;2023-06-10T06:54:37;13.13;;;6.05;;
24715;SDS011;12822;50.124;8.678;2023-06-10T06:57:03;12.38;;;5.88;;
24715;SDS011;12822;50.124;8.678;2023-06-10T06:59:30;9.88;;;6.30;;
24715;SDS011;12822;50.124;8.678;2023-06-10T07:01:56;7.72;;;5.45;;
24715;SDS011;12822;50.124;8.678;2023-06-10T07:04:22;10.45;;;6.22;;
24715;SDS011;12822;50.124;8.678;2023-06-10T07:06:48;8.10;;;5.93;;
24715;SDS011;12822;50.124;8.678;2023-06-10T07:09:14;8.85;;;5.90;;
24715;SDS011;12822;50.124;8.678;2023-06-10T07:11:40;8.00;;;6.03;;
24715;SDS011;12822;50.124;8.678;2023-06-10T07:14:07;7.55;;;6.13;;
24715;SDS011;12822;50.124;8.678;2023-06-10T07:16:33;12.60;;;6.32;;
24715;SDS011;12822;50.124;8.678;2023-06-10T07:18:59;8.63;;;6.07;;
24715;SDS011;12822;50.124;8.678;2023-06-10T07:21:25;8.07;;;6.32;;
24715;SDS011;12822;50.124;8.678;2023-06-10T07:23:53;11.88;;;6.25;;
24715;SDS011;12822;50.124;8.678;2023-06-10T07:26:21;12.57;;;5.75;;
24715;SDS011;12822;50.124;8.678;2023-06-10T07:28:47;6.57;;;5.45;;
24715;SDS011;12822;50.124;8.678;2023-06-10T07:31:13;10.48;;;5.85;;
24715;SDS011;12822;50.124;8.678;2023-06-10T07:33:39;8.90;;;5.47;;
24715;SDS011;12822;50.124;8.678;2023-06-10T07:36:08;8.50;;;5.53;;
24715;SDS011;12822;50.124;8.678;2023-06-10T07:38:35;9.70;;;5.95;;
24715;SDS011;12822;50.124;8.678;2023-06-10T07:41:01;8.55;;;5.75;;
24715;SDS011;12822;50.124;8.678;2023-06-10T07:43:27;9.63;;;5.70;;
24715;SDS011;12822;50.124;8.678;2023-06-10T07:45:53;10.05;;;5.43;;
24715;SDS011;12822;50.124;8.678;2023-06-10T07:48:19;7.88;;;5.60;;
24715;SDS011;12822;50.124;8.678;2023-06-10T07:50:45;9.80;;;5.55;;
24715;SDS011;12822;50.124;8.678;2023-06-10T07:53:11;7.38;;;5.68;;
24715;SDS011;12822;50.124;8.678;2023-06-10T07:55:37;8.43;;;5.75;;
24715;SDS011;12822;50.124;8.678;2023-06-10T07:58:03;12.77;;;5.40;;
24715;SDS011;12822;50.124;8.678;2023-06-10T08:00:29;13.38;;;5.85;;
24715;SDS011;12822;50.124;8.678;2023-06-10T08:02:55;9.07;;;5.32;;
24715;SDS011;12822;50.124;8.678;2023-06-10T08:05:21;10.77;;;5.80;;
24715;SDS011;12822;50.124;8.678;2023-06-10T08:07:47;7.70;;;5.32;;
24715;SDS011;12822;50.124;8.678;2023-06-10T08:10:13;10.30;;;5.72;;
24715;SDS011;12822;50.124;8.678;2023-06-10T08:12:39;12.27;;;5.30;;
24715;SDS011;12822;50.124;8.678;2023-06-10T08:15:05;9.43;;;6.05;;
24715;SDS011;12822;50.124;8.678;2023-06-10T08:17:31;7.95;;;5.15;;
24715;SDS011;12822;50.124;8.678;2023-06-10T08:19:57;9.02;;;5.07;;
24715;SDS011;12822;50.124;8.678;2023-06-10T08:22:23;9.38;;;5.65;;
24715;SDS011;12822;50.124;8.678;2023-06-10T08:24:49;9.18;;;5.13;;
24715;SDS011;12822;50.124;8.678;2023-06-10T08:27:16;6.93;;;5.18;;
24715;SDS011;12822;50.124;8.678;2023-06-10T08:29:42;11.13;;;5.20;;
24715;SDS011;12822;50.124;8.678;2023-06-10T08:32:08;6.97;;;4.78;;
24715;SDS011;12822;50.124;8.678;2023-06-10T08:34:34;10.65;;;5.22;;
24715;SDS011;12822;50.124;8.678;2023-06-10T08:37:01;5.57;;;4.97;;
24715;SDS011;12822;50.124;8.678;2023-06-10T08:39:27;6.32;;;4.95;;
24715;SDS011;12822;50.124;8.678;2023-06-10T08:44:41;8.13;;;5.18;;
24715;SDS011;12822;50.124;8.678;2023-06-10T08:47:14;6.97;;;5.20;;
24715;SDS011;12822;50.124;8.678;2023-06-10T08:49:41;8.07;;;4.47;;
24715;SDS011;12822;50.124;8.678;2023-06-10T08:52:08;5.82;;;4.78;;
24715;SDS011;12822;50.124;8.678;2023-06-10T08:54:37;6.32;;;5.20;;
24715;SDS011;12822;50.124;8.678;2023-06-10T08:57:05;10.13;;;4.65;;
24715;SDS011;12822;50.124;8.678;2023-06-10T08:59:31;7.90;;;4.60;;
24715;SDS011;12822;50.124;8.678;2023-06-10T09:01:57;5.45;;;4.75;;
24715;SDS011;12822;50.124;8.678;2023-06-10T09:04:24;9.55;;;4.60;;
24715;SDS011;12822;50.124;8.678;2023-06-10T09:06:50;6.95;;;4.50;;
24715;SDS011;12822;50.124;8.678;2023-06-10T09:09:16;7.18;;;4.22;;
24715;SDS011;12822;50.124;8.678;2023-06-10T09:11:44;9.38;;;3.95;;
24715;SDS011;12822;50.124;8.678;2023-06-10T09:14:10;6.05;;;4.13;;
24715;SDS011;12822;50.124;8.678;2023-06-10T09:16:37;4.78;;;4.22;;
24715;SDS011;12822;50.124;8.678;2023-06-10T09:19:06;9.50;;;4.30;;
24715;SDS011;12822;50.124;8.678;2023-06-10T09:21:35;5.80;;;4.00;;
24715;SDS011;12822;50.124;8.678;2023-06-10T09:24:01;6.60;;;4.22;;
24715;SDS011;12822;50.124;8.678;2023-06-10T09:26:28;5.70;;;4.40;;
24715;SDS011;12822;50.124;8.678;2023-06-10T09:28:57;6.50;;;3.80;;
24715;SDS011;12822;50.124;8.678;2023-06-10T09:31:23;7.60;;;4.55;;
24715;SDS011;12822;50.124;8.678;2023-06-10T09:33:49;7.80;;;3.75;;
24715;SDS011;12822;50.124;8.678;2023-06-10T09:36:22;7.10;;;4.20;;
24715;SDS011;12822;50.124;8.678;2023-06-10T09:38:49;6.75;;;4.55;;
24715;SDS011;12822;50.124;8.678;2023-06-10T09:41:18;8.70;;;4.30;;
24715;SDS011;12822;50.124;8.678;2023-06-10T09:43:44;5.32;;;3.83;;
24715;SDS011;12822;50.124;8.678;2023-06-10T09:46:17;7.18;;;4.10;;
24715;SDS011;12822;50.124;8.678;2023-06-10T09:48:44;7.53;;;4.63;;
24715;SDS011;12822;50.124;8.678;2023-06-10T09:51:11;6.32;;;4.10;;
24715;SDS011;12822;50.124;8.678;2023-06-10T09:53:37;8.25;;;4.25;;
24715;SDS011;12822;50.124;8.678;2023-06-10T09:56:03;5.13;;;3.80;;
24715;SDS011;12822;50.124;8.678;2023-06-10T09:58:35;6.45;;;3.35;;
24715;SDS011;12822;50.124;8.678;2023-06-10T10:01:05;6.55;;;4.05;;
24715;SDS011;12822;50.124;8.678;2023-06-10T10:03:31;5.93;;;4.13;;
24715;SDS011;12822;50.124;8.678;2023-06-10T10:05:58;4.68;;;3.97;;
24715;SDS011;12822;50.124;8.678;2023-06-10T10:08:27;4.63;;;3.90;;
24715;SDS011;12822;50.124;8.678;2023-06-10T10:10:53;5.75;;;3.80;;
24715;SDS011;12822;50.124;8.678;2023-06-10T10:13:21;5.85;;;3.97;;
24715;SDS011;12822;50.124;8.678;2023-06-10T10:15:47;5.30;;;3.63;;
24715;SDS011;12822;50.124;8.678;2023-06-10T10:18:14;5.13;;;3.70;;
24715;SDS011;12822;50.124;8.678;2023-06-10T10:20:46;5.55;;;3.95;;
24715;SDS011;12822;50.124;8.678;2023-06-10T10:23:13;8.25;;;3.85;;
24715;SDS011;12822;50.124;8.678;2023-06-10T10:25:40;8.55;;;3.50;;
24715;SDS011;12822;50.124;8.678;2023-06-10T10:28:09;4.88;;;3.80;;
24715;SDS011;12822;50.124;8.678;2023-06-10T10:30:58;4.80;;;3.65;;
24715;SDS011;12822;50.124;8.678;2023-06-10T10:33:22;9.70;;;3.20;;
24715;SDS011;12822;50.124;8.678;2023-06-10T10:35:52;3.63;;;3.10;;
24715;SDS011;12822;50.124;8.678;2023-06-10T10:38:18;6.28;;;3.25;;
24715;SDS011;12822;50.124;8.678;2023-06-10T10:40:45;3.45;;;3.00;;
24715;SDS011;12822;50.124;8.678;2023-06-10T10:43:11;5.50;;;3.50;;
24715;SDS011;12822;50.124;8.678;2023-06-10T10:45:38;6.88;;;3.45;;
24715;SDS011;12822;50.124;8.678;2023-06-10T10:48:08;6.85;;;3.58;;
24715;SDS011;12822;50.124;8.678;2023-06-10T10:50:40;7.97;;;3.25;;
24715;SDS011;12822;50.124;8.678;2023-06-10T10:53:06;5.85;;;3.30;;
24715;SDS011;12822;50.124;8.678;2023-06-10T10:55:32;9.98;;;3.67;;
24715;SDS011;12822;50.124;8.678;2023-06-10T10:58:00;4.20;;;3.15;;
24715;SDS011;12822;50.124;8.678;2023-06-10T11:00:31;4.03;;;3.20;;
24715;SDS011;12822;50.124;8.678;2023-06-10T11:05:40;4.65;;;3.40;;
24715;SDS011;12822;50.124;8.678;2023-06-10T11:08:09;6.38;;;4.03;;
24715;SDS011;12822;50.124;8.678;2023-06-10T11:10:36;4.82;;;3.15;;
24715;SDS011;12822;50.124;8.678;2023-06-10T11:13:09;5.32;;;3.20;;
24715;SDS011;12822;50.124;8.678;2023-06-10T11:15:39;6.43;;;3.30;;
24715;SDS011;12822;50.124;8.678;2023-06-10T11:23:10;5.53;;;3.50;;
24715;SDS011;12822;50.124;8.678;2023-06-10T11:25:39;3.17;;;2.78;;
24715;SDS011;12822;50.124;8.678;2023-06-10T11:28:18;4.80;;;3.07;;
24715;SDS011;12822;50.124;8.678;2023-06-10T11:30:44;3.88;;;2.92;;
24715;SDS011;12822;50.124;8.678;2023-06-10T11:33:14;4.93;;;3.28;;
24715;SDS011;12822;50.124;8.678;2023-06-10T11:38:06;4.38;;;3.60;;
24715;SDS011;12822;50.124;8.678;2023-06-10T11:40:32;5.95;;;3.10;;
24715;SDS011;12822;50.124;8.678;2023-06-10T11:43:01;5.03;;;3.30;;
24715;SDS011;12822;50.124;8.678;2023-06-10T11:45:28;6.30;;;3.38;;
24715;SDS011;12822;50.124;8.678;2023-06-10T11:47:58;5.15;;;3.40;;
24715;SDS011;12822;50.124;8.678;2023-06-10T11:50:28;4.93;;;3.65;;
24715;SDS011;12822;50.124;8.678;2023-06-10T11:52:54;7.10;;;3.38;;
24715;SDS011;12822;50.124;8.678;2023-06-10T11:55:21;7.75;;;3.45;;
24715;SDS011;12822;50.124;8.678;2023-06-10T11:57:47;6.38;;;3.53;;
24715;SDS011;12822;50.124;8.678;2023-06-10T12:00:14;3.65;;;2.83;;
24715;SDS011;12822;50.124;8.678;2023-06-10T12:02:40;4.32;;;3.50;;
24715;SDS011;12822;50.124;8.678;2023-06-10T12:05:12;7.28;;;3.30;;
24715;SDS011;12822;50.124;8.678;2023-06-10T12:07:41;7.15;;;3.50;;
24715;SDS011;12822;50.124;8.678;2023-06-10T12:10:07;6.10;;;3.35;;
24715;SDS011;12822;50.124;8.678;2023-06-10T12:12:36;6.45;;;3.50;;
24715;SDS011;12822;50.124;8.678;2023-06-10T12:15:02;4.85;;;3.40;;
24715;SDS011;12822;50.124;8.678;2023-06-10T12:20:01;6.57;;;3.08;;
24715;SDS011;12822;50.124;8.678;2023-06-10T12:22:38;4.45;;;3.03;;
24715;SDS011;12822;50.124;8.678;2023-06-10T12:25:05;7.15;;;2.97;;
24715;SDS011;12822;50.124;8.678;2023-06-10T12:27:31;3.58;;;2.92;;
24715;SDS011;12822;50.124;8.678;2023-06-10T12:29:58;5.60;;;3.20;;
24715;SDS011;12822;50.124;8.678;2023-06-10T12:35:05;6.10;;;3.28;;
24715;SDS011;12822;50.124;8.678;2023-06-10T12:37:31;4.75;;;3.05;;
24715;SDS011;12822;50.124;8.678;2023-06-10T12:40:01;6.63;;;3.00;;
24715;SDS011;12822;50.124;8.678;2023-06-10T12:42:34;4.70;;;3.00;;
24715;SDS011;12822;50.124;8.678;2023-06-10T12:45:02;3.47;;;3.00;;
24715;SDS011;12822;50.124;8.678;2023-06-10T12:47:35;5.00;;;3.08;;
24715;SDS011;12822;50.124;8.678;2023-06-10T12:50:01;3.63;;;3.20;;
24715;SDS011;12822;50.124;8.678;2023-06-10T12:52:28;5.00;;;2.83;;
24715;SDS011;12822;50.124;8.678;2023-06-10T12:54:54;6.30;;;3.20;;
24715;SDS011;12822;50.124;8.678;2023-06-10T12:57:20;6.15;;;3.13;;
24715;SDS011;12822;50.124;8.678;2023-06-10T12:59:46;6.97;;;3.50;;
24715;SDS011;12822;50.124;8.678;2023-06-10T13:02:17;6.40;;;3.30;;
24715;SDS011;12822;50.124;8.678;2023-06-10T13:04:45;5.05;;;3.42;;
24715;SDS011;12822;50.124;8.678;2023-06-10T13:07:11;8.50;;;3.60;;
24715;SDS011;12822;50.124;8.678;2023-06-10T13:09:37;4.30;;;3.20;;
24715;SDS011;12822;50.124;8.678;2023-06-10T13:12:06;6.32;;;3.30;;
24715;SDS011;12822;50.124;8.678;2023-06-10T13:14:33;6.95;;;3.47;;
24715;SDS011;12822;50.124;8.678;2023-06-10T13:16:59;5.88;;;3.35;;
24715;SDS011;12822;50.124;8.678;2023-06-10T13:19:25;5.10;;;3.15;;
24715;SDS011;12822;50.124;8.678;2023-06-10T13:21:51;4.55;;;3.58;;
24715;SDS011;12822;50.124;8.678;2023-06-10T13:24:17;5.07;;;3.80;;
24715;SDS011;12822;50.124;8.678;2023-06-10T13:26:45;5.72;;;3.60;;
24715;SDS011;12822;50.124;8.678;2023-06-10T13:29:11;6.10;;;3.75;;
24715;SDS011;12822;50.124;8.678;2023-06-10T13:31:39;7.60;;;4.13;;
24715;SDS011;12822;50.124;8.678;2023-06-10T13:34:05;6.10;;;3.97;;
24715;SDS011;12822;50.124;8.678;2023-06-10T13:36:32;7.63;;;3.53;;
24715;SDS011;12822;50.124;8.678;2023-06-10T13:38:58;6.25;;;4.40;;
24715;SDS011;12822;50.124;8.678;2023-06-10T13:41:24;6.40;;;3.70;;
24715;SDS011;12822;50.124;8.678;2023-06-10T13:43:50;8.48;;;4.28;;
24715;SDS011;12822;50.124;8.678;2023-06-10T13:46:15;8.90;;;3.83;;
24715;SDS011;12822;50.124;8.678;2023-06-10T13:48:42;5.88;;;3.83;;
24715;SDS011;12822;50.124;8.678;2023-06-10T13:51:08;4.70;;;3.50;;
24715;SDS011;12822;50.124;8.678;2023-06-10T13:53:36;9.27;;;3.83;;
24715;SDS011;12822;50.124;8.678;2023-06-10T13:56:02;4.95;;;3.53;;
24715;SDS011;12822;50.124;8.678;2023-06-10T13:58:28;5.63;;;3.65;;
24715;SDS011;12822;50.124;8.678;2023-06-10T14:00:54;4.88;;;3.53;;
24715;SDS011;12822;50.124;8.678;2023-06-10T14:03:20;5.45;;;3.15;;
24715;SDS011;12822;50.124;8.678;2023-06-10T14:05:46;4.32;;;3.25;;
24715;SDS011;12822;50.124;8.678;2023-06-10T14:08:12;6.65;;;3.17;;
24715;SDS011;12822;50.124;8.678;2023-06-10T14:10:39;3.83;;;3.33;;
24715;SDS011;12822;50.124;8.678;2023-06-10T14:13:05;4.50;;;3.30;;
24715;SDS011;12822;50.124;8.678;2023-06-10T14:15:31;5.30;;;3.30;;
24715;SDS011;12822;50.124;8.678;2023-06-10T14:17:57;5.30;;;3.33;;
24715;SDS011;12822;50.124;8.678;2023-06-10T14:20:24;6.97;;;3.42;;
24715;SDS011;12822;50.124;8.678;2023-06-10T14:22:51;4.15;;;3.08;;
24715;SDS011;12822;50.124;8.678;2023-06-10T14:25:17;5.30;;;3.30;;
24715;SDS011;12822;50.124;8.678;2023-06-10T14:27:43;4.05;;;2.97;;
24715;SDS011;12822;50.124;8.678;2023-06-10T14:30:12;5.70;;;3.08;;
24715;SDS011;12822;50.124;8.678;2023-06-10T14:32:38;4.35;;;3.03;;
24715;SDS011;12822;50.124;8.678;2023-06-10T14:35:04;8.70;;;3.33;;
24715;SDS011;12822;50.124;8.678;2023-06-10T14:37:30;2.80;;;2.40;;
24715;SDS011;12822;50.124;8.678;2023-06-10T14:39:56;3.08;;;2.78;;
24715;SDS011;12822;50.124;8.678;2023-06-10T14:42:22;5.25;;;3.58;;
24715;SDS011;12822;50.124;8.678;2023-06-10T14:44:48;4.70;;;3.30;;
24715;SDS011;12822;50.124;8.678;2023-06-10T14:47:14;6.30;;;3.22;;
24715;SDS011;12822;50.124;8.678;2023-06-10T14:49:43;6.75;;;3.88;;
24715;SDS011;12822;50.124;8.678;2023-06-10T14:52:10;7.82;;;3.42;;
24715;SDS011;12822;50.124;8.678;2023-06-10T14:54:36;5.22;;;3.28;;
24715;SDS011;12822;50.124;8.678;2023-06-10T14:57:02;6.13;;;3.05;;
24715;SDS011;12822;50.124;8.678;2023-06-10T14:59:28;4.25;;;3.00;;
24715;SDS011;12822;50.124;8.678;2023-06-10T15:01:54;6.18;;;3.30;;